Portada
METAR-TAF:

METAR-TAF

Aeropuertos :

Aeropuerto de Copenhague-Kastrup

Copenhague, Dinamarca

latitud: 55-37N, longitud: 012-39E, altitud: 5 m

Observación

El informe se hizo hace 26 minutos, a las 10:20 UTC
Viento 2 kt del este-sureste
Temperatura 13°C
Humedad 41%
Presión 1038 hPa
Visibilidad 10 km o más

METAR: EKCH 191020Z AUTO 12002KT 9999NDV NCD 13/00 Q1038 NOSIG

Hora: 12:46 (10:46 UTC)

Pronóstico

El informe se hizo hace 5 horas y 43 minutos, a las 05:03 UTC
Pronóstico válido del 19 a las 06 UTC al 20 a las 06 UTC
Viento 8 kt del este
Visibilidad 10 km o más
sin nubes por debajo de 1500 m y sin presencia de cumulonimbus.
Evolucionando progresivamente
del 19 a las 10 UTC al 19 a las 12 UTC
Viento 10 kt del sur
Evolucionando progresivamente
del 19 a las 18 UTC al 19 a las 20 UTC
Viento 2 kt con dirección variable

TAF: EKCH 190503Z 1906/2006 09008KT CAVOK BECMG 1910/1912 19010KT BECMG 1918/1920 VRB02KT

Observaciones y pronósticos meteorológicos de más de 4000 aeropuertos (mensajes METAR y TAF).

Los puntos amarillos y rojos representan las estaciones disponibles.

Ponga el ratón en el punto deseado para ver el nombre de la estación.

Haga clic para ver las observaciones y los pronósticos meteorológicos.

Para cambiar el mapa : haga clic en los botones verdes con una cruz de color negro para hacer un zoom, en el botón verde con un guión para alejar o en las flechas verdes para mapas adyacentes.


METAR-TAF: